createdAt,value
2017-12-02T00:01:01.407Z,44.70
2017-12-02T00:03:30.458Z,36.80
2017-12-02T00:05:58.790Z,54.97
2017-12-02T00:08:27.291Z,37.07
2017-12-02T00:10:55.598Z,54.20
2017-12-02T00:13:24.018Z,41.37
2017-12-02T00:15:52.526Z,39.47
2017-12-02T00:18:20.879Z,45.97
2017-12-02T00:20:49.220Z,45.83
2017-12-02T00:23:17.606Z,39.57
2017-12-02T00:25:45.893Z,33.03
2017-12-02T00:28:14.227Z,46.73
2017-12-02T00:30:43.285Z,42.67
2017-12-02T00:33:11.615Z,39.63
2017-12-02T00:35:40.707Z,47.33
2017-12-02T00:38:09.107Z,41.53
2017-12-02T00:40:37.470Z,43.07
2017-12-02T00:43:05.778Z,42.13
2017-12-02T00:45:34.314Z,39.97
2017-12-02T00:48:02.672Z,38.10
2017-12-02T00:50:30.958Z,44.33
2017-12-02T00:52:59.275Z,38.47
2017-12-02T00:55:27.562Z,34.40
2017-12-02T00:57:56.664Z,39.80
2017-12-02T01:00:25.738Z,37.83
2017-12-02T01:02:55.533Z,31.27
2017-12-02T01:05:23.867Z,30.37
2017-12-02T01:07:52.250Z,34.70
2017-12-02T01:10:20.538Z,39.07
2017-12-02T01:12:48.881Z,31.33
2017-12-02T01:15:17.215Z,36.10
2017-12-02T01:17:45.538Z,33.80
2017-12-02T01:20:14.609Z,37.17
2017-12-02T01:22:43.053Z,42.50
2017-12-02T01:25:11.343Z,32.57
2017-12-02T01:27:39.631Z,34.50
2017-12-02T01:30:07.978Z,39.40
2017-12-02T01:32:36.270Z,33.37
2017-12-02T01:35:04.559Z,32.03
2017-12-02T01:37:32.885Z,32.53
2017-12-02T01:40:01.176Z,36.30
2017-12-02T01:42:29.502Z,29.30
2017-12-02T01:44:57.795Z,32.77
2017-12-02T01:47:26.199Z,35.17
2017-12-02T01:49:54.595Z,35.93
2017-12-02T01:52:22.926Z,33.13
2017-12-02T01:54:51.255Z,32.63
2017-12-02T01:57:19.539Z,30.70
2017-12-02T01:59:47.830Z,37.50
2017-12-02T02:02:16.150Z,27.30
2017-12-02T02:04:44.450Z,26.67
2017-12-02T02:07:12.762Z,33.03
2017-12-02T02:09:41.054Z,30.40
2017-12-02T02:12:09.386Z,28.10
2017-12-02T02:14:37.675Z,30.50
2017-12-02T02:17:06.010Z,33.43
2017-12-02T02:19:34.297Z,29.90
2017-12-02T02:22:03.386Z,31.20
2017-12-02T02:24:32.453Z,24.53
2017-12-02T02:27:00.979Z,32.77
2017-12-02T02:29:30.051Z,29.67
2017-12-02T02:31:58.346Z,32.50
2017-12-02T02:34:26.703Z,35.73
2017-12-02T02:36:55.004Z,30.50
2017-12-02T02:39:23.300Z,32.30
2017-12-02T02:41:51.627Z,30.10
2017-12-02T02:44:19.922Z,28.50
2017-12-02T02:46:48.257Z,30.70
2017-12-02T02:49:16.592Z,24.13
2017-12-02T02:51:44.939Z,30.77
2017-12-02T02:54:13.485Z,32.00
2017-12-02T02:56:41.775Z,26.37
2017-12-02T02:59:10.064Z,26.73
2017-12-02T03:01:38.392Z,35.63
2017-12-02T03:04:06.680Z,29.53
2017-12-02T03:06:35.134Z,35.33
2017-12-02T03:09:03.430Z,33.63
2017-12-02T03:11:31.731Z,31.60
2017-12-02T03:14:02.028Z,30.00
2017-12-02T03:16:30.357Z,32.40
2017-12-02T03:18:59.447Z,32.90
2017-12-02T03:21:29.283Z,29.30
2017-12-02T03:23:58.342Z,30.80
2017-12-02T03:26:26.804Z,29.73
2017-12-02T03:28:55.859Z,29.10
2017-12-02T03:31:24.175Z,35.90
2017-12-02T03:33:52.467Z,37.90
2017-12-02T03:36:20.846Z,31.93
2017-12-02T03:38:49.115Z,33.67
2017-12-02T03:41:17.406Z,36.27
2017-12-02T03:43:45.740Z,29.23
2017-12-02T03:46:14.839Z,32.73
2017-12-02T03:48:43.176Z,27.57
2017-12-02T03:51:11.508Z,24.70
2017-12-02T03:53:39.786Z,27.33
2017-12-02T03:56:08.115Z,24.90
2017-12-02T03:58:37.170Z,29.70
2017-12-02T04:01:05.498Z,28.10
2017-12-02T04:03:34.558Z,26.67
2017-12-02T04:06:02.853Z,27.20
2017-12-02T04:08:31.182Z,26.27
2017-12-02T04:11:00.290Z,23.23
2017-12-02T04:13:28.579Z,20.83
2017-12-02T04:15:57.638Z,27.37
2017-12-02T04:18:25.974Z,27.00
2017-12-02T04:20:54.272Z,24.20
2017-12-02T04:23:23.350Z,21.60
2017-12-02T04:25:51.670Z,29.17
2017-12-02T04:28:20.726Z,21.40
2017-12-02T04:30:49.071Z,21.87
2017-12-02T04:33:18.128Z,21.17
2017-12-02T04:35:46.551Z,27.73
2017-12-02T04:38:14.830Z,28.23
2017-12-02T04:40:43.130Z,27.17
2017-12-02T04:43:11.468Z,24.87
2017-12-02T04:45:39.755Z,24.40
2017-12-02T04:48:08.090Z,24.90
2017-12-02T04:50:36.378Z,22.13
2017-12-02T04:53:04.670Z,30.07
2017-12-02T04:55:33.007Z,23.17
2017-12-02T04:58:01.297Z,25.70
2017-12-02T05:00:29.635Z,32.87
2017-12-02T05:02:57.939Z,20.60
2017-12-02T05:05:26.254Z,25.23
2017-12-02T05:07:54.539Z,24.73
2017-12-02T05:10:22.998Z,22.50
2017-12-02T05:12:51.278Z,29.23
2017-12-02T05:15:19.570Z,23.10
2017-12-02T05:17:47.902Z,28.13
2017-12-02T05:20:16.235Z,29.60
2017-12-02T05:22:44.523Z,21.20
2017-12-02T05:25:12.873Z,28.83
2017-12-02T05:27:41.160Z,22.40
2017-12-02T05:30:09.446Z,25.90
2017-12-02T05:32:38.003Z,28.10
2017-12-02T05:35:06.287Z,25.40
2017-12-02T05:37:34.618Z,26.90
2017-12-02T05:40:02.963Z,23.87
2017-12-02T05:42:31.470Z,26.53
2017-12-02T05:44:59.763Z,24.23
2017-12-02T05:47:28.051Z,27.00
2017-12-02T05:49:56.380Z,28.30
2017-12-02T05:52:24.686Z,30.83
2017-12-02T05:54:53.012Z,20.70
2017-12-02T05:57:21.297Z,29.63
2017-12-02T05:59:49.693Z,29.93
2017-12-02T06:02:17.978Z,24.00
2017-12-02T06:04:46.272Z,25.20
2017-12-02T06:07:14.600Z,31.87
2017-12-02T06:09:42.934Z,23.08
2017-12-02T06:12:11.243Z,36.40
2017-12-02T06:14:39.566Z,39.63
2017-12-02T06:17:08.643Z,37.33
2017-12-02T06:19:38.480Z,31.60
2017-12-02T06:22:07.570Z,35.28
2017-12-02T06:24:35.911Z,50.80
2017-12-02T06:27:04.202Z,56.70
2017-12-02T06:29:32.531Z,107.07
2017-12-02T06:32:00.818Z,77.07
2017-12-02T06:34:29.153Z,92.53
2017-12-02T06:36:58.215Z,117.60
2017-12-02T06:39:26.507Z,120.47
2017-12-02T06:41:54.847Z,73.67
2017-12-02T06:44:23.134Z,51.33
2017-12-02T06:46:51.690Z,62.13
2017-12-02T06:49:19.983Z,51.90
2017-12-02T06:51:48.274Z,52.33
2017-12-02T06:54:16.638Z,46.57
2017-12-02T06:56:44.926Z,48.10
2017-12-02T06:59:13.220Z,47.37
2017-12-02T07:01:41.555Z,55.83
2017-12-02T07:04:10.612Z,77.47
2017-12-02T07:06:39.062Z,86.23
2017-12-02T07:09:08.173Z,72.70
2017-12-02T07:11:37.223Z,44.00
2017-12-02T07:14:05.558Z,78.53
2017-12-02T07:16:34.615Z,62.93
2017-12-02T07:19:02.943Z,65.82
2017-12-02T07:21:32.002Z,46.27
2017-12-02T07:24:00.347Z,60.17
2017-12-02T07:26:29.419Z,123.03
2017-12-02T07:28:57.738Z,79.23
2017-12-02T07:31:26.803Z,82.33
2017-12-02T07:33:55.126Z,45.13
2017-12-02T07:36:23.419Z,72.17
2017-12-02T07:38:51.747Z,71.43
2017-12-02T07:41:20.035Z,84.47
2017-12-02T07:43:48.595Z,53.87
2017-12-02T07:46:17.651Z,96.70
2017-12-02T07:48:45.955Z,57.42
2017-12-02T07:51:14.378Z,48.80
2017-12-02T07:53:42.669Z,49.53
2017-12-02T07:56:10.994Z,40.70
2017-12-02T07:58:39.486Z,41.90
2017-12-02T08:01:07.775Z,39.00
2017-12-02T08:03:36.071Z,63.40
2017-12-02T08:06:04.401Z,44.37
2017-12-02T08:08:32.719Z,45.47
2017-12-02T08:11:01.012Z,40.20
2017-12-02T08:13:30.098Z,35.17
2017-12-02T08:15:58.431Z,35.57
2017-12-02T08:18:26.762Z,30.33
2017-12-02T08:20:55.058Z,31.17
2017-12-02T08:23:23.397Z,35.60
2017-12-02T08:25:51.687Z,43.53
2017-12-02T08:28:20.023Z,35.03
2017-12-02T08:30:48.356Z,29.07
2017-12-02T08:33:17.455Z,35.37
2017-12-02T08:35:46.514Z,35.13
2017-12-02T08:38:14.846Z,36.23
2017-12-02T08:40:43.170Z,44.50
2017-12-02T08:43:11.500Z,39.57
2017-12-02T08:45:39.783Z,34.47
2017-12-02T08:48:08.123Z,32.10
2017-12-02T08:50:37.181Z,35.73
2017-12-02T08:53:05.476Z,41.33
2017-12-02T08:55:33.803Z,29.47
2017-12-02T08:58:02.888Z,25.90
2017-12-02T09:00:31.271Z,27.00
2017-12-02T09:02:59.558Z,23.10
2017-12-02T09:05:27.842Z,23.67
2017-12-02T09:07:56.179Z,25.77
2017-12-02T09:10:24.521Z,27.07
2017-12-02T09:12:52.810Z,32.37
2017-12-02T09:15:21.099Z,26.03
2017-12-02T09:17:49.426Z,27.73
2017-12-02T09:20:18.708Z,20.77
2017-12-02T09:22:46.994Z,26.50
2017-12-02T09:25:15.282Z,28.70
2017-12-02T09:27:43.614Z,23.57
2017-12-02T09:30:11.958Z,31.50
2017-12-02T09:32:40.251Z,26.23
2017-12-02T09:35:08.543Z,29.10
2017-12-02T09:37:36.998Z,23.03
2017-12-02T09:40:06.274Z,27.33
2017-12-02T09:42:35.384Z,24.90
2017-12-02T09:45:04.444Z,21.63
2017-12-02T09:47:32.733Z,25.37
2017-12-02T09:50:01.070Z,25.20
2017-12-02T09:52:30.166Z,26.17
2017-12-02T09:54:58.468Z,30.53
2017-12-02T09:57:27.524Z,28.90
2017-12-02T09:59:56.245Z,26.73
2017-12-02T10:02:24.535Z,27.23
2017-12-02T10:04:52.947Z,24.40
2017-12-02T10:07:22.047Z,25.40
2017-12-02T10:09:50.330Z,24.70
2017-12-02T10:12:18.666Z,26.47
2017-12-02T10:17:23.001Z,24.70
2017-12-02T10:19:52.067Z,29.40
2017-12-02T10:22:20.363Z,25.87
2017-12-02T10:24:48.746Z,24.67
2017-12-02T10:27:17.248Z,21.87
2017-12-02T10:29:46.373Z,23.83
2017-12-02T10:32:15.074Z,26.67
2017-12-02T10:34:43.448Z,26.57
2017-12-02T10:37:11.733Z,24.07
2017-12-02T10:39:40.242Z,25.17
2017-12-02T10:42:08.539Z,26.00
2017-12-02T10:44:36.827Z,23.60
2017-12-02T10:47:05.167Z,25.80
2017-12-02T10:49:33.459Z,24.67
2017-12-02T10:52:01.791Z,21.93
2017-12-02T10:54:30.118Z,21.53
2017-12-02T10:56:58.427Z,21.40
2017-12-02T10:59:26.742Z,24.30
2017-12-02T11:01:55.035Z,22.27
2017-12-02T11:04:23.358Z,23.37
2017-12-02T11:06:52.436Z,31.80
2017-12-02T11:09:20.758Z,21.13
2017-12-02T11:11:49.813Z,17.20
2017-12-02T11:14:18.143Z,20.07
2017-12-02T11:16:46.429Z,18.80
2017-12-02T11:19:14.802Z,20.13
2017-12-02T11:21:43.097Z,21.90
2017-12-02T11:24:11.426Z,18.17
2017-12-02T11:26:39.718Z,25.70
2017-12-02T11:29:08.039Z,15.07
2017-12-02T11:31:36.335Z,17.33
2017-12-02T11:34:04.690Z,18.10
2017-12-02T11:36:32.978Z,17.57
2017-12-02T11:39:01.278Z,21.23
2017-12-02T11:41:29.619Z,19.67
2017-12-02T11:43:57.928Z,24.67
2017-12-02T11:46:26.997Z,24.07
2017-12-02T11:48:55.315Z,43.23
2017-12-02T11:51:23.606Z,55.77
2017-12-02T11:53:51.934Z,79.87
2017-12-02T11:56:20.222Z,80.43
2017-12-02T11:58:48.555Z,71.83
2017-12-02T12:01:18.178Z,30.20
2017-12-02T12:03:46.467Z,17.20
2017-12-02T12:06:14.761Z,14.30
2017-12-02T12:08:43.887Z,19.17
2017-12-02T12:11:12.945Z,29.93
2017-12-02T12:13:41.355Z,16.80
2017-12-02T12:16:10.602Z,14.60
2017-12-02T12:18:39.986Z,13.23
2017-12-02T12:21:08.430Z,15.27
2017-12-02T12:23:36.768Z,17.00
2017-12-02T12:26:05.050Z,13.37
2017-12-02T12:28:33.330Z,13.50
2017-12-02T12:31:01.668Z,21.60
2017-12-02T12:33:30.723Z,13.80
2017-12-02T12:35:59.050Z,15.20
2017-12-02T12:38:27.336Z,13.00
2017-12-02T12:40:57.174Z,17.10
2017-12-02T12:43:26.231Z,15.87
2017-12-02T12:45:54.586Z,14.83
2017-12-02T12:48:22.879Z,15.07
2017-12-02T12:50:51.187Z,13.80
2017-12-02T12:53:20.502Z,15.23
2017-12-02T12:55:48.853Z,12.97
2017-12-02T12:58:17.903Z,12.77
2017-12-02T13:00:46.190Z,11.60
2017-12-02T13:03:14.511Z,12.47
2017-12-02T13:05:42.902Z,13.63
2017-12-02T13:08:11.187Z,11.87
2017-12-02T13:10:39.547Z,14.47
2017-12-02T13:13:07.831Z,11.57
2017-12-02T13:15:37.422Z,14.13
2017-12-02T13:18:06.503Z,11.57
2017-12-02T13:20:34.830Z,13.40
2017-12-02T13:23:03.119Z,12.80
2017-12-02T13:25:32.171Z,16.60
2017-12-02T13:28:00.491Z,16.40
2017-12-02T13:30:30.328Z,11.70
2017-12-02T13:32:59.408Z,14.07
2017-12-02T13:35:27.722Z,14.30
2017-12-02T13:37:56.775Z,14.07
2017-12-02T13:40:25.106Z,16.73
2017-12-02T13:42:53.394Z,18.07
2017-12-02T13:45:21.674Z,13.60
2017-12-02T13:47:50.018Z,15.20
2017-12-02T13:50:18.350Z,17.47
2017-12-02T13:52:46.643Z,15.40
2017-12-02T13:55:14.979Z,30.37
2017-12-02T13:57:43.315Z,39.83
2017-12-02T14:00:11.646Z,54.60
2017-12-02T14:02:40.756Z,56.63
2017-12-02T14:05:09.815Z,131.13
2017-12-02T14:07:38.167Z,267.33
2017-12-02T14:10:06.496Z,185.07
2017-12-02T14:12:34.795Z,113.03
2017-12-02T14:15:03.140Z,69.70
2017-12-02T14:17:31.436Z,68.73
2017-12-02T14:19:59.763Z,49.40
2017-12-02T14:22:29.566Z,49.00
2017-12-02T14:24:57.897Z,33.10
2017-12-02T14:27:26.182Z,25.33
2017-12-02T14:29:54.502Z,18.23
2017-12-02T14:32:22.842Z,20.77
2017-12-02T14:34:51.234Z,19.70
2017-12-02T14:37:19.597Z,22.13
2017-12-02T14:39:47.875Z,13.53
2017-12-02T14:42:16.159Z,16.23
2017-12-02T14:44:44.499Z,16.20
2017-12-02T14:47:12.783Z,16.17
2017-12-02T14:49:41.111Z,19.27
2017-12-02T14:52:10.167Z,17.83
2017-12-02T14:54:38.498Z,22.57
2017-12-02T14:57:07.550Z,14.50
2017-12-02T14:59:35.877Z,15.00
2017-12-02T15:02:04.168Z,15.53
2017-12-02T15:04:33.396Z,19.83
2017-12-02T15:07:01.729Z,33.30
2017-12-02T15:09:30.004Z,28.50
2017-12-02T15:11:58.341Z,14.23
2017-12-02T15:14:26.635Z,19.43
2017-12-02T15:16:54.934Z,16.67
2017-12-02T15:19:23.291Z,16.17
2017-12-02T15:21:51.591Z,15.02
2017-12-02T15:24:19.875Z,13.37
2017-12-02T15:26:48.199Z,11.37
2017-12-02T15:29:16.522Z,13.07
2017-12-02T15:31:44.815Z,13.33
2017-12-02T15:34:13.246Z,11.23
2017-12-02T15:36:41.575Z,10.47
2017-12-02T15:39:10.658Z,12.77
2017-12-02T15:41:39.877Z,15.73
2017-12-02T15:44:08.258Z,12.73
2017-12-02T15:46:36.562Z,16.60
2017-12-02T15:49:04.870Z,11.27
2017-12-02T15:51:33.238Z,18.80
2017-12-02T15:54:03.084Z,22.83
2017-12-02T15:56:31.408Z,26.43
2017-12-02T15:58:59.798Z,23.33
2017-12-02T16:01:28.946Z,14.57
2017-12-02T16:03:57.226Z,11.27
2017-12-02T16:06:25.550Z,7.60
2017-12-02T16:08:54.628Z,7.23
2017-12-02T16:11:22.915Z,7.60
2017-12-02T16:13:55.161Z,7.43
2017-12-02T16:16:23.452Z,6.73
2017-12-02T16:18:52.715Z,8.77
2017-12-02T16:21:21.040Z,9.40
2017-12-02T16:23:49.362Z,8.33
2017-12-02T16:26:17.643Z,11.70
2017-12-02T16:28:45.939Z,6.30
2017-12-02T16:31:14.307Z,10.60
2017-12-02T16:33:42.627Z,6.63
2017-12-02T16:36:10.916Z,7.70
2017-12-02T16:38:39.243Z,8.20
2017-12-02T16:41:08.287Z,7.80
2017-12-02T16:43:36.608Z,5.00
2017-12-02T16:46:04.884Z,4.70
2017-12-02T16:48:33.199Z,9.13
2017-12-02T16:51:01.576Z,7.07
2017-12-02T16:53:29.854Z,6.30
2017-12-02T16:55:58.161Z,9.30
2017-12-02T16:58:26.478Z,9.97
2017-12-02T17:00:55.523Z,9.90
2017-12-02T17:03:23.833Z,8.57
2017-12-02T17:05:52.118Z,12.07
2017-12-02T17:08:20.443Z,16.30
2017-12-02T17:10:49.495Z,9.57
2017-12-02T17:13:18.826Z,7.23
2017-12-02T17:15:47.151Z,8.43
2017-12-02T17:18:16.194Z,8.23
2017-12-02T17:20:44.530Z,9.00
2017-12-02T17:23:13.030Z,10.20
2017-12-02T17:25:41.518Z,11.90
2017-12-02T17:28:09.821Z,13.30
2017-12-02T17:30:39.574Z,17.73
2017-12-02T17:33:08.047Z,22.57
2017-12-02T17:35:37.163Z,25.90
2017-12-02T17:38:06.464Z,26.93
2017-12-02T17:40:35.520Z,35.70
2017-12-02T17:43:03.842Z,31.50
2017-12-02T17:45:32.150Z,30.73
2017-12-02T17:48:01.335Z,29.03
2017-12-02T17:50:29.627Z,31.20
2017-12-02T17:52:57.914Z,35.60
2017-12-02T17:55:26.246Z,33.40
2017-12-02T17:57:54.616Z,31.60
2017-12-02T18:00:23.666Z,37.07
2017-12-02T18:02:51.950Z,43.70
2017-12-02T18:05:20.388Z,29.90
2017-12-02T18:07:48.679Z,35.40
2017-12-02T18:10:17.003Z,37.00
2017-12-02T18:12:45.339Z,36.20
2017-12-02T18:15:13.743Z,38.33
2017-12-02T18:17:43.587Z,40.07
2017-12-02T18:20:12.716Z,42.13
2017-12-02T18:22:41.008Z,39.87
2017-12-02T18:25:09.294Z,36.97
2017-12-02T18:27:38.948Z,37.57
2017-12-02T18:30:07.240Z,42.73
2017-12-02T18:32:35.530Z,34.90
2017-12-02T18:35:03.862Z,35.40
2017-12-02T18:37:32.169Z,30.60
2017-12-02T18:40:00.463Z,31.90
2017-12-02T18:42:28.794Z,29.60
2017-12-02T18:44:57.098Z,36.10
2017-12-02T18:47:27.919Z,33.40
2017-12-02T18:49:56.211Z,32.03
2017-12-02T18:52:24.547Z,38.80
2017-12-02T18:54:53.602Z,39.60
2017-12-02T18:57:21.903Z,33.40
2017-12-02T18:59:50.251Z,33.97
2017-12-02T19:02:19.339Z,42.87
2017-12-02T19:04:47.629Z,33.33
2017-12-02T19:07:16.733Z,32.40
2017-12-02T19:09:45.842Z,31.60
2017-12-02T19:12:14.178Z,35.90
2017-12-02T19:14:42.463Z,34.00
2017-12-02T19:17:10.752Z,32.87
2017-12-02T19:19:39.094Z,36.60
2017-12-02T19:22:07.387Z,35.20
2017-12-02T19:24:35.734Z,31.30
2017-12-02T19:27:04.091Z,30.77
2017-12-02T19:29:32.424Z,35.50
2017-12-02T19:32:00.750Z,27.53
2017-12-02T19:34:29.051Z,36.17
2017-12-02T19:36:58.143Z,34.07
2017-12-02T19:39:26.438Z,30.40
2017-12-02T19:41:54.759Z,39.60
2017-12-02T19:44:23.050Z,35.47
2017-12-02T19:46:51.374Z,40.10
2017-12-02T19:49:19.664Z,36.50
2017-12-02T19:51:47.994Z,46.57
2017-12-02T19:54:17.059Z,33.60
2017-12-02T19:56:45.388Z,34.43
2017-12-02T19:59:14.443Z,34.43
2017-12-02T20:01:43.061Z,33.37
2017-12-02T20:04:12.310Z,35.37
2017-12-02T20:06:40.604Z,36.23
2017-12-02T20:09:09.699Z,33.63
2017-12-02T20:11:38.804Z,35.53
2017-12-02T20:14:07.974Z,31.27
2017-12-02T20:16:36.266Z,37.27
2017-12-02T20:19:04.594Z,37.30
2017-12-02T20:21:33.650Z,29.17
2017-12-02T20:24:02.004Z,36.97
2017-12-02T20:26:31.059Z,35.80
2017-12-02T20:28:59.398Z,37.73
2017-12-02T20:31:28.611Z,31.20
2017-12-02T20:33:56.947Z,41.40
2017-12-02T20:36:25.244Z,31.17
2017-12-02T20:38:53.588Z,36.23
2017-12-02T20:41:22.636Z,39.97
2017-12-02T20:43:50.965Z,30.70
2017-12-02T20:46:20.050Z,38.03
2017-12-02T20:48:48.552Z,37.70
2017-12-02T20:51:16.841Z,37.70
2017-12-02T20:53:45.134Z,37.33
2017-12-02T20:56:15.052Z,42.37
2017-12-02T20:58:43.450Z,41.30
2017-12-02T21:01:11.746Z,42.20
2017-12-02T21:03:40.125Z,45.30
2017-12-02T21:06:08.454Z,41.87
2017-12-02T21:08:37.439Z,39.40
2017-12-02T21:13:36.470Z,37.70
2017-12-02T21:16:05.581Z,52.07
2017-12-02T21:18:34.671Z,41.23
2017-12-02T21:21:02.962Z,35.50
2017-12-02T21:23:32.078Z,37.00
2017-12-02T21:26:00.412Z,40.10
2017-12-02T21:28:28.954Z,37.53
2017-12-02T21:30:57.234Z,33.00
2017-12-02T21:33:25.527Z,36.43
2017-12-02T21:35:53.882Z,38.37
2017-12-02T21:38:22.219Z,34.63
2017-12-02T21:40:50.511Z,36.50
2017-12-02T21:43:18.842Z,38.67
2017-12-02T21:45:47.141Z,33.63
2017-12-02T21:48:15.462Z,46.67
2017-12-02T21:50:43.752Z,33.10
2017-12-02T21:53:12.074Z,41.90
2017-12-02T21:55:41.144Z,35.20
2017-12-02T21:58:09.551Z,34.87
2017-12-02T22:00:37.859Z,33.90
2017-12-02T22:03:07.067Z,41.17
2017-12-02T22:05:36.127Z,36.90
2017-12-02T22:08:04.423Z,39.33
2017-12-02T22:10:32.758Z,35.43
2017-12-02T22:13:01.846Z,41.17
2017-12-02T22:15:30.143Z,43.60
2017-12-02T22:17:59.234Z,45.33
2017-12-02T22:20:27.534Z,39.93
2017-12-02T22:22:55.863Z,38.20
2017-12-02T22:25:24.170Z,42.03
2017-12-02T22:27:52.603Z,35.80
2017-12-02T22:30:20.935Z,40.03
2017-12-02T22:32:49.282Z,44.07
2017-12-02T22:35:19.074Z,38.00
2017-12-02T22:37:47.410Z,33.43
2017-12-02T22:40:15.704Z,47.33
2017-12-02T22:42:44.802Z,38.97
2017-12-02T22:45:13.134Z,39.87
2017-12-02T22:47:41.482Z,37.47
2017-12-02T22:50:10.542Z,41.87
2017-12-02T22:52:38.832Z,37.00
2017-12-02T22:55:07.183Z,35.57
2017-12-02T22:57:36.251Z,36.80
2017-12-02T23:00:04.543Z,40.03
2017-12-02T23:02:32.883Z,37.97
2017-12-02T23:05:01.175Z,45.00
2017-12-02T23:07:29.516Z,46.17
2017-12-02T23:09:57.859Z,45.43
2017-12-02T23:12:26.146Z,43.47
2017-12-02T23:14:54.439Z,32.50
2017-12-02T23:17:22.789Z,31.40
2017-12-02T23:19:51.131Z,31.30
2017-12-02T23:22:19.495Z,34.83
2017-12-02T23:24:48.547Z,34.10
2017-12-02T23:27:16.898Z,27.57
2017-12-02T23:29:45.188Z,34.23
2017-12-02T23:32:13.536Z,39.07
2017-12-02T23:34:42.416Z,31.17
2017-12-02T23:37:13.298Z,35.03
2017-12-02T23:39:41.598Z,37.63
2017-12-02T23:42:10.664Z,35.33
2017-12-02T23:44:39.169Z,33.07
2017-12-02T23:47:07.483Z,39.03
2017-12-02T23:49:35.860Z,41.00
2017-12-02T23:52:04.151Z,31.17
2017-12-02T23:54:32.442Z,32.63
2017-12-02T23:57:00.835Z,27.83
2017-12-02T23:59:29.166Z,33.70
